sensor_id;sensor_type;location;lat;lon;timestamp;pressure;altitude;pressure_sealevel;temperature;humidity
33506;BME280;19843;51.040;13.782;2023-04-05T00:02:02;101142.72;;;3.63;59.52
33506;BME280;19843;51.040;13.782;2023-04-05T00:04:30;101132.94;;;3.65;59.46
33506;BME280;19843;51.040;13.782;2023-04-05T00:06:59;101132.91;;;3.66;59.32
33506;BME280;19843;51.040;13.782;2023-04-05T00:09:27;101130.69;;;3.49;59.46
33506;BME280;19843;51.040;13.782;2023-04-05T00:11:54;101130.69;;;3.49;59.72
33506;BME280;19843;51.040;13.782;2023-04-05T00:14:24;101126.03;;;3.59;59.28
33506;BME280;19843;51.040;13.782;2023-04-05T00:16:51;101130.28;;;3.65;59.28
33506;BME280;19843;51.040;13.782;2023-04-05T00:19:18;101124.88;;;3.69;59.43
33506;BME280;19843;51.040;13.782;2023-04-05T00:21:48;101125.97;;;3.61;59.79
33506;BME280;19843;51.040;13.782;2023-04-05T00:24:16;101132.50;;;3.47;60.35
33506;BME280;19843;51.040;13.782;2023-04-05T00:26:43;101126.31;;;3.48;60.75
33506;BME280;19843;51.040;13.782;2023-04-05T00:29:10;101115.94;;;3.41;60.53
33506;BME280;19843;51.040;13.782;2023-04-05T00:31:39;101118.34;;;3.50;60.26
33506;BME280;19843;51.040;13.782;2023-04-05T00:34:06;101128.25;;;3.42;60.76
33506;BME280;19843;51.040;13.782;2023-04-05T00:36:35;101123.34;;;3.26;60.64
33506;BME280;19843;51.040;13.782;2023-04-05T00:39:02;101113.69;;;3.24;60.88
33506;BME280;19843;51.040;13.782;2023-04-05T00:41:30;101117.31;;;3.20;60.59
33506;BME280;19843;51.040;13.782;2023-04-05T00:43:57;101116.84;;;3.38;60.24
33506;BME280;19843;51.040;13.782;2023-04-05T00:46:25;101113.94;;;3.47;60.30
33506;BME280;19843;51.040;13.782;2023-04-05T00:48:54;101110.53;;;3.44;60.57
33506;BME280;19843;51.040;13.782;2023-04-05T00:51:21;101102.88;;;3.31;61.00
33506;BME280;19843;51.040;13.782;2023-04-05T00:53:49;101101.06;;;3.33;61.17
33506;BME280;19843;51.040;13.782;2023-04-05T00:56:18;101104.41;;;3.42;60.66
33506;BME280;19843;51.040;13.782;2023-04-05T00:58:46;101107.31;;;3.31;60.79
33506;BME280;19843;51.040;13.782;2023-04-05T01:01:17;101108.50;;;3.19;60.73
33506;BME280;19843;51.040;13.782;2023-04-05T01:03:46;101115.59;;;3.19;60.70
33506;BME280;19843;51.040;13.782;2023-04-05T01:06:21;101113.19;;;3.08;61.46
33506;BME280;19843;51.040;13.782;2023-04-05T01:08:54;101098.03;;;3.14;61.11
33506;BME280;19843;51.040;13.782;2023-04-05T01:11:25;101103.91;;;3.27;61.19
33506;BME280;19843;51.040;13.782;2023-04-05T01:13:56;101110.22;;;3.22;61.58
33506;BME280;19843;51.040;13.782;2023-04-05T01:16:24;101101.47;;;3.18;61.51
33506;BME280;19843;51.040;13.782;2023-04-05T01:18:52;101102.47;;;3.14;62.20
33506;BME280;19843;51.040;13.782;2023-04-05T01:21:31;101097.03;;;3.19;62.25
33506;BME280;19843;51.040;13.782;2023-04-05T01:24:06;101097.66;;;3.28;61.43
33506;BME280;19843;51.040;13.782;2023-04-05T01:26:52;101093.81;;;3.40;61.80
33506;BME280;19843;51.040;13.782;2023-04-05T01:29:26;101085.75;;;3.45;61.54
33506;BME280;19843;51.040;13.782;2023-04-05T01:32:02;101093.28;;;3.27;62.18
33506;BME280;19843;51.040;13.782;2023-04-05T01:34:36;101089.75;;;3.27;62.32
33506;BME280;19843;51.040;13.782;2023-04-05T01:37:06;101086.38;;;3.20;62.40
33506;BME280;19843;51.040;13.782;2023-04-05T01:39:34;101081.63;;;3.34;62.44
33506;BME280;19843;51.040;13.782;2023-04-05T01:42:02;101079.47;;;3.47;62.57
33506;BME280;19843;51.040;13.782;2023-04-05T01:44:31;101069.06;;;3.41;62.64
33506;BME280;19843;51.040;13.782;2023-04-05T01:46:58;101067.50;;;3.34;62.89
33506;BME280;19843;51.040;13.782;2023-04-05T01:49:26;101075.31;;;3.39;62.48
33506;BME280;19843;51.040;13.782;2023-04-05T01:51:53;101076.38;;;3.31;62.80
33506;BME280;19843;51.040;13.782;2023-04-05T01:54:20;101071.84;;;3.37;62.72
33506;BME280;19843;51.040;13.782;2023-04-05T01:56:48;101064.59;;;3.43;63.08
33506;BME280;19843;51.040;13.782;2023-04-05T01:59:15;101064.63;;;3.42;62.99
33506;BME280;19843;51.040;13.782;2023-04-05T02:01:44;101064.47;;;3.48;62.88
33506;BME280;19843;51.040;13.782;2023-04-05T02:04:11;101075.22;;;3.42;62.86
33506;BME280;19843;51.040;13.782;2023-04-05T02:06:39;101064.75;;;3.37;62.74
33506;BME280;19843;51.040;13.782;2023-04-05T02:09:07;101075.38;;;3.35;62.72
33506;BME280;19843;51.040;13.782;2023-04-05T02:11:34;101077.91;;;3.40;62.90
33506;BME280;19843;51.040;13.782;2023-04-05T02:14:02;101068.69;;;3.55;62.94
33506;BME280;19843;51.040;13.782;2023-04-05T02:16:29;101066.44;;;3.40;63.24
33506;BME280;19843;51.040;13.782;2023-04-05T02:18:59;101077.03;;;3.41;63.09
33506;BME280;19843;51.040;13.782;2023-04-05T02:21:27;101070.78;;;3.42;63.35
33506;BME280;19843;51.040;13.782;2023-04-05T02:23:55;101065.84;;;3.30;63.28
33506;BME280;19843;51.040;13.782;2023-04-05T02:26:22;101066.13;;;3.18;63.30
33506;BME280;19843;51.040;13.782;2023-04-05T02:28:50;101063.34;;;3.22;63.46
33506;BME280;19843;51.040;13.782;2023-04-05T02:31:17;101058.38;;;3.44;63.30
33506;BME280;19843;51.040;13.782;2023-04-05T02:33:44;101059.31;;;3.42;63.11
33506;BME280;19843;51.040;13.782;2023-04-05T02:36:15;101063.81;;;3.38;62.89
33506;BME280;19843;51.040;13.782;2023-04-05T02:38:42;101062.19;;;3.34;62.61
33506;BME280;19843;51.040;13.782;2023-04-05T02:41:10;101060.41;;;3.34;63.16
33506;BME280;19843;51.040;13.782;2023-04-05T02:43:37;101061.00;;;3.46;63.02
33506;BME280;19843;51.040;13.782;2023-04-05T02:46:05;101062.72;;;3.47;63.02
33506;BME280;19843;51.040;13.782;2023-04-05T02:48:32;101058.50;;;3.40;62.60
33506;BME280;19843;51.040;13.782;2023-04-05T02:50:59;101065.94;;;3.25;63.07
33506;BME280;19843;51.040;13.782;2023-04-05T02:53:28;101054.53;;;3.22;63.40
33506;BME280;19843;51.040;13.782;2023-04-05T02:55:56;101060.69;;;3.24;63.46
33506;BME280;19843;51.040;13.782;2023-04-05T02:58:25;101051.66;;;3.31;63.37
33506;BME280;19843;51.040;13.782;2023-04-05T03:00:52;101054.16;;;3.37;63.47
33506;BME280;19843;51.040;13.782;2023-04-05T03:03:21;101053.22;;;3.38;63.00
33506;BME280;19843;51.040;13.782;2023-04-05T03:05:55;101053.34;;;3.33;63.38
33506;BME280;19843;51.040;13.782;2023-04-05T03:08:23;101055.63;;;3.14;63.60
33506;BME280;19843;51.040;13.782;2023-04-05T03:10:51;101048.00;;;3.35;63.19
33506;BME280;19843;51.040;13.782;2023-04-05T03:13:18;101048.16;;;3.29;63.74
33506;BME280;19843;51.040;13.782;2023-04-05T03:15:46;101044.44;;;3.36;63.64
33506;BME280;19843;51.040;13.782;2023-04-05T03:18:13;101046.22;;;3.35;63.97
33506;BME280;19843;51.040;13.782;2023-04-05T03:20:41;101052.03;;;3.16;64.23
33506;BME280;19843;51.040;13.782;2023-04-05T03:23:11;101048.16;;;3.29;64.58
33506;BME280;19843;51.040;13.782;2023-04-05T03:25:38;101047.16;;;3.34;64.11
33506;BME280;19843;51.040;13.782;2023-04-05T03:28:08;101041.84;;;3.34;63.99
33506;BME280;19843;51.040;13.782;2023-04-05T03:30:35;101039.38;;;3.27;64.47
33506;BME280;19843;51.040;13.782;2023-04-05T03:33:03;101036.81;;;3.24;64.40
33506;BME280;19843;51.040;13.782;2023-04-05T03:35:31;101040.19;;;3.30;64.47
33506;BME280;19843;51.040;13.782;2023-04-05T03:37:58;101035.75;;;3.31;64.60
33506;BME280;19843;51.040;13.782;2023-04-05T03:40:25;101035.44;;;3.43;64.51
33506;BME280;19843;51.040;13.782;2023-04-05T03:42:53;101035.69;;;3.34;64.48
33506;BME280;19843;51.040;13.782;2023-04-05T03:45:21;101039.22;;;3.33;64.55
33506;BME280;19843;51.040;13.782;2023-04-05T03:47:50;101037.41;;;3.35;64.56
33506;BME280;19843;51.040;13.782;2023-04-05T03:50:17;101037.50;;;3.32;64.87
33506;BME280;19843;51.040;13.782;2023-04-05T03:52:45;101035.38;;;3.12;65.07
33506;BME280;19843;51.040;13.782;2023-04-05T03:55:12;101031.50;;;3.25;65.11
33506;BME280;19843;51.040;13.782;2023-04-05T03:57:42;101033.03;;;3.34;65.03
33506;BME280;19843;51.040;13.782;2023-04-05T04:00:09;101039.38;;;3.27;65.24
33506;BME280;19843;51.040;13.782;2023-04-05T04:02:42;101031.41;;;3.28;65.06
33506;BME280;19843;51.040;13.782;2023-04-05T04:05:09;101037.31;;;3.38;64.85
33506;BME280;19843;51.040;13.782;2023-04-05T04:07:37;101035.69;;;3.34;64.15
33506;BME280;19843;51.040;13.782;2023-04-05T04:10:05;101041.16;;;3.28;64.55
33506;BME280;19843;51.040;13.782;2023-04-05T04:12:32;101045.59;;;3.27;63.80
33506;BME280;19843;51.040;13.782;2023-04-05T04:15:00;101040.06;;;3.35;64.17
33506;BME280;19843;51.040;13.782;2023-04-05T04:17:27;101042.59;;;3.40;64.13
33506;BME280;19843;51.040;13.782;2023-04-05T04:19:56;101047.00;;;3.41;63.50
33506;BME280;19843;51.040;13.782;2023-04-05T04:22:24;101043.25;;;3.48;63.62
33506;BME280;19843;51.040;13.782;2023-04-05T04:24:58;101040.63;;;3.46;63.69
33506;BME280;19843;51.040;13.782;2023-04-05T04:27:27;101041.16;;;3.26;64.28
33506;BME280;19843;51.040;13.782;2023-04-05T04:29:55;101036.53;;;3.34;64.29
33506;BME280;19843;51.040;13.782;2023-04-05T04:32:27;101049.97;;;3.28;64.17
33506;BME280;19843;51.040;13.782;2023-04-05T04:35:16;101047.34;;;3.27;65.01
33506;BME280;19843;51.040;13.782;2023-04-05T04:37:46;101044.63;;;3.30;65.17
33506;BME280;19843;51.040;13.782;2023-04-05T04:40:18;101038.38;;;3.32;65.33
33506;BME280;19843;51.040;13.782;2023-04-05T04:42:46;101032.91;;;3.39;64.64
33506;BME280;19843;51.040;13.782;2023-04-05T04:45:13;101038.28;;;3.35;64.77
33506;BME280;19843;51.040;13.782;2023-04-05T04:47:42;101040.34;;;3.24;64.90
33506;BME280;19843;51.040;13.782;2023-04-05T04:50:10;101048.59;;;3.13;65.19
33506;BME280;19843;51.040;13.782;2023-04-05T04:52:39;101046.00;;;3.10;65.01
33506;BME280;19843;51.040;13.782;2023-04-05T04:55:07;101041.63;;;3.09;65.04
33506;BME280;19843;51.040;13.782;2023-04-05T04:57:34;101038.06;;;3.10;65.20
33506;BME280;19843;51.040;13.782;2023-04-05T05:00:02;101035.78;;;2.95;65.52
33506;BME280;19843;51.040;13.782;2023-04-05T05:02:37;101035.53;;;3.06;66.21
33506;BME280;19843;51.040;13.782;2023-04-05T05:05:05;101033.50;;;2.81;66.20
33506;BME280;19843;51.040;13.782;2023-04-05T05:07:32;101040.69;;;2.76;66.21
33506;BME280;19843;51.040;13.782;2023-04-05T05:10:01;101049.72;;;2.67;66.33
33506;BME280;19843;51.040;13.782;2023-04-05T05:12:28;101039.13;;;2.67;66.55
33506;BME280;19843;51.040;13.782;2023-04-05T05:14:56;101045.78;;;2.84;66.02
33506;BME280;19843;51.040;13.782;2023-04-05T05:17:24;101044.97;;;2.82;65.94
33506;BME280;19843;51.040;13.782;2023-04-05T05:19:51;101044.41;;;2.69;66.24
33506;BME280;19843;51.040;13.782;2023-04-05T05:22:21;101045.34;;;2.66;67.29
33506;BME280;19843;51.040;13.782;2023-04-05T05:24:48;101042.00;;;2.58;67.25
33506;BME280;19843;51.040;13.782;2023-04-05T05:27:17;101041.25;;;2.53;67.29
33506;BME280;19843;51.040;13.782;2023-04-05T05:29:44;101040.16;;;2.62;66.94
33506;BME280;19843;51.040;13.782;2023-04-05T05:32:12;101039.13;;;2.67;67.25
33506;BME280;19843;51.040;13.782;2023-04-05T05:34:41;101040.56;;;2.81;66.31
33506;BME280;19843;51.040;13.782;2023-04-05T05:37:10;101045.50;;;2.96;66.46
33506;BME280;19843;51.040;13.782;2023-04-05T05:39:38;101036.81;;;3.24;65.41
33506;BME280;19843;51.040;13.782;2023-04-05T05:42:05;101042.56;;;3.41;64.83
33506;BME280;19843;51.040;13.782;2023-04-05T05:44:34;101042.16;;;3.57;64.65
33506;BME280;19843;51.040;13.782;2023-04-05T05:47:01;101041.47;;;3.80;63.64
33506;BME280;19843;51.040;13.782;2023-04-05T05:49:29;101039.97;;;4.01;63.28
33506;BME280;19843;51.040;13.782;2023-04-05T05:51:56;101035.47;;;4.32;62.09
33506;BME280;19843;51.040;13.782;2023-04-05T05:54:24;101034.25;;;4.43;61.95
33506;BME280;19843;51.040;13.782;2023-04-05T05:56:51;101025.44;;;4.70;61.29
33506;BME280;19843;51.040;13.782;2023-04-05T05:59:19;101031.53;;;4.72;60.34
33506;BME280;19843;51.040;13.782;2023-04-05T06:01:47;101033.16;;;4.76;60.35
33506;BME280;19843;51.040;13.782;2023-04-05T06:04:16;101028.78;;;4.75;60.59
33506;BME280;19843;51.040;13.782;2023-04-05T06:06:44;101030.22;;;4.59;60.95
33506;BME280;19843;51.040;13.782;2023-04-05T06:09:13;101027.56;;;4.86;59.96
33506;BME280;19843;51.040;13.782;2023-04-05T06:11:40;101022.69;;;4.98;59.66
33506;BME280;19843;51.040;13.782;2023-04-05T06:14:20;101026.84;;;5.07;59.50
33506;BME280;19843;51.040;13.782;2023-04-05T06:16:49;101034.50;;;5.16;58.28
33506;BME280;19843;51.040;13.782;2023-04-05T06:19:16;101039.66;;;5.21;57.70
33506;BME280;19843;51.040;13.782;2023-04-05T06:21:44;101041.38;;;5.22;56.73
33506;BME280;19843;51.040;13.782;2023-04-05T06:24:11;101039.50;;;5.26;57.01
33506;BME280;19843;51.040;13.782;2023-04-05T06:26:38;101036.19;;;5.44;55.93
33506;BME280;19843;51.040;13.782;2023-04-05T06:29:06;101036.56;;;5.33;56.67
33506;BME280;19843;51.040;13.782;2023-04-05T06:31:34;101036.84;;;5.51;56.47
33506;BME280;19843;51.040;13.782;2023-04-05T06:34:03;101032.16;;;5.57;55.25
33506;BME280;19843;51.040;13.782;2023-04-05T06:36:30;101032.75;;;5.40;55.86
33506;BME280;19843;51.040;13.782;2023-04-05T06:38:59;101022.72;;;5.49;57.42
33506;BME280;19843;51.040;13.782;2023-04-05T06:41:26;101027.50;;;5.64;55.62
33506;BME280;19843;51.040;13.782;2023-04-05T06:43:53;101027.69;;;5.58;56.36
33506;BME280;19843;51.040;13.782;2023-04-05T06:46:21;101019.13;;;5.75;55.76
33506;BME280;19843;51.040;13.782;2023-04-05T06:48:50;101024.66;;;5.69;55.73
33506;BME280;19843;51.040;13.782;2023-04-05T06:51:18;101025.09;;;5.56;55.33
33506;BME280;19843;51.040;13.782;2023-04-05T06:53:46;101020.97;;;5.73;55.32
33506;BME280;19843;51.040;13.782;2023-04-05T06:56:13;101024.16;;;6.06;54.30
33506;BME280;19843;51.040;13.782;2023-04-05T06:58:41;101025.06;;;6.06;54.93
33506;BME280;19843;51.040;13.782;2023-04-05T07:01:09;101019.28;;;5.94;54.36
33506;BME280;19843;51.040;13.782;2023-04-05T07:03:37;101020.97;;;5.73;54.17
33506;BME280;19843;51.040;13.782;2023-04-05T07:06:04;101025.34;;;5.74;53.85
33506;BME280;19843;51.040;13.782;2023-04-05T07:08:33;101024.97;;;5.84;54.09
33506;BME280;19843;51.040;13.782;2023-04-05T07:11:00;101025.44;;;5.96;55.73
33506;BME280;19843;51.040;13.782;2023-04-05T07:13:27;101021.56;;;6.04;54.71
33506;BME280;19843;51.040;13.782;2023-04-05T07:15:58;101017.66;;;6.37;54.81
33506;BME280;19843;51.040;13.782;2023-04-05T07:18:26;101017.94;;;6.51;54.27
33506;BME280;19843;51.040;13.782;2023-04-05T07:20:55;101009.53;;;6.62;53.71
33506;BME280;19843;51.040;13.782;2023-04-05T07:23:25;101013.72;;;6.89;52.65
33506;BME280;19843;51.040;13.782;2023-04-05T07:25:54;101005.84;;;6.86;52.06
33506;BME280;19843;51.040;13.782;2023-04-05T07:28:21;101005.00;;;6.64;51.74
33506;BME280;19843;51.040;13.782;2023-04-05T07:30:48;101010.69;;;6.77;52.51
33506;BME280;19843;51.040;13.782;2023-04-05T07:33:16;101004.25;;;6.82;51.30
33506;BME280;19843;51.040;13.782;2023-04-05T07:35:43;101006.25;;;6.77;51.09
33506;BME280;19843;51.040;13.782;2023-04-05T07:38:10;101012.88;;;7.09;51.26
33506;BME280;19843;51.040;13.782;2023-04-05T07:40:38;101004.00;;;7.09;50.51
33506;BME280;19843;51.040;13.782;2023-04-05T07:43:07;101007.75;;;7.25;50.24
33506;BME280;19843;51.040;13.782;2023-04-05T07:45:34;101003.50;;;7.61;48.72
33506;BME280;19843;51.040;13.782;2023-04-05T07:48:02;101002.94;;;7.54;49.65
33506;BME280;19843;51.040;13.782;2023-04-05T07:50:29;101007.06;;;7.80;48.16
33506;BME280;19843;51.040;13.782;2023-04-05T07:52:57;100998.84;;;8.04;47.79
33506;BME280;19843;51.040;13.782;2023-04-05T07:55:24;100996.13;;;8.05;48.00
33506;BME280;19843;51.040;13.782;2023-04-05T07:57:52;100998.41;;;7.94;47.93
33506;BME280;19843;51.040;13.782;2023-04-05T08:00:21;100998.06;;;8.02;46.48
33506;BME280;19843;51.040;13.782;2023-04-05T08:02:48;100996.00;;;7.50;47.84
33506;BME280;19843;51.040;13.782;2023-04-05T08:05:16;100994.72;;;7.59;49.58
33506;BME280;19843;51.040;13.782;2023-04-05T08:07:43;100992.38;;;7.90;49.22
33506;BME280;19843;51.040;13.782;2023-04-05T08:10:10;100984.78;;;8.00;46.10
33506;BME280;19843;51.040;13.782;2023-04-05T08:12:38;100989.41;;;7.97;48.39
33506;BME280;19843;51.040;13.782;2023-04-05T08:15:05;100984.50;;;8.06;47.51
33506;BME280;19843;51.040;13.782;2023-04-05T08:17:34;100987.03;;;7.90;46.45
33506;BME280;19843;51.040;13.782;2023-04-05T08:20:02;100988.03;;;8.07;46.01
33506;BME280;19843;51.040;13.782;2023-04-05T08:22:29;100986.19;;;8.26;46.79
33506;BME280;19843;51.040;13.782;2023-04-05T08:24:56;100982.47;;;8.49;46.81
33506;BME280;19843;51.040;13.782;2023-04-05T08:27:24;100991.56;;;8.82;46.79
33506;BME280;19843;51.040;13.782;2023-04-05T08:29:51;100987.19;;;8.62;45.17
33506;BME280;19843;51.040;13.782;2023-04-05T08:32:18;100988.00;;;8.64;44.61
33506;BME280;19843;51.040;13.782;2023-04-05T08:34:47;100984.56;;;9.14;44.89
33506;BME280;19843;51.040;13.782;2023-04-05T08:37:14;100980.94;;;8.80;45.21
33506;BME280;19843;51.040;13.782;2023-04-05T08:39:41;100986.34;;;8.23;46.47
33506;BME280;19843;51.040;13.782;2023-04-05T08:42:10;100980.09;;;8.61;45.36
33506;BME280;19843;51.040;13.782;2023-04-05T08:44:38;100972.91;;;9.15;46.36
33506;BME280;19843;51.040;13.782;2023-04-05T08:47:07;100972.09;;;9.48;45.05
33506;BME280;19843;51.040;13.782;2023-04-05T08:49:35;100972.72;;;9.35;44.86
33506;BME280;19843;51.040;13.782;2023-04-05T08:52:04;100978.81;;;9.04;42.98
33506;BME280;19843;51.040;13.782;2023-04-05T08:54:31;100971.72;;;8.68;43.89
33506;BME280;19843;51.040;13.782;2023-04-05T08:56:59;100978.34;;;8.23;46.44
33506;BME280;19843;51.040;13.782;2023-04-05T08:59:31;100975.69;;;8.04;45.98
33506;BME280;19843;51.040;13.782;2023-04-05T09:02:00;100976.69;;;8.21;46.03
33506;BME280;19843;51.040;13.782;2023-04-05T09:04:30;100973.66;;;8.65;46.46
33506;BME280;19843;51.040;13.782;2023-04-05T09:06:58;100969.91;;;9.04;44.75
33506;BME280;19843;51.040;13.782;2023-04-05T09:09:28;100972.94;;;8.97;43.40
33506;BME280;19843;51.040;13.782;2023-04-05T09:11:59;100971.56;;;8.54;44.69
33506;BME280;19843;51.040;13.782;2023-04-05T09:14:29;100983.63;;;8.44;45.30
33506;BME280;19843;51.040;13.782;2023-04-05T09:16:57;100979.28;;;8.41;44.15
33506;BME280;19843;51.040;13.782;2023-04-05T09:19:24;100977.75;;;8.72;45.40
33506;BME280;19843;51.040;13.782;2023-04-05T09:21:59;100979.41;;;8.57;45.87
33506;BME280;19843;51.040;13.782;2023-04-05T09:24:32;100983.56;;;8.63;46.14
33506;BME280;19843;51.040;13.782;2023-04-05T09:27:02;100975.88;;;8.74;45.14
33506;BME280;19843;51.040;13.782;2023-04-05T09:29:29;100973.31;;;8.72;45.48
33506;BME280;19843;51.040;13.782;2023-04-05T09:31:57;100984.78;;;8.19;44.72
33506;BME280;19843;51.040;13.782;2023-04-05T09:34:24;100983.63;;;7.68;44.15
33506;BME280;19843;51.040;13.782;2023-04-05T09:36:51;100977.19;;;7.32;44.40
33506;BME280;19843;51.040;13.782;2023-04-05T09:39:19;100978.56;;;7.62;45.45
33506;BME280;19843;51.040;13.782;2023-04-05T09:42:04;100969.63;;;8.01;44.41
33506;BME280;19843;51.040;13.782;2023-04-05T09:44:47;100971.06;;;8.27;44.91
33506;BME280;19843;51.040;13.782;2023-04-05T09:47:15;100978.84;;;8.31;44.80
33506;BME280;19843;51.040;13.782;2023-04-05T09:49:43;100965.72;;;8.08;45.60
33506;BME280;19843;51.040;13.782;2023-04-05T09:52:17;100969.47;;;8.23;46.44
33506;BME280;19843;51.040;13.782;2023-04-05T09:54:44;100967.06;;;8.72;47.00
33506;BME280;19843;51.040;13.782;2023-04-05T09:57:13;100969.44;;;9.13;43.61
33506;BME280;19843;51.040;13.782;2023-04-05T09:59:41;100958.03;;;8.92;42.82
33506;BME280;19843;51.040;13.782;2023-04-05T10:02:09;100955.94;;;8.81;44.04
33506;BME280;19843;51.040;13.782;2023-04-05T10:04:39;100964.59;;;8.86;44.35
33506;BME280;19843;51.040;13.782;2023-04-05T10:07:07;100957.00;;;9.29;44.49
33506;BME280;19843;51.040;13.782;2023-04-05T10:09:35;100956.16;;;9.11;43.84
33506;BME280;19843;51.040;13.782;2023-04-05T10:12:02;100966.06;;;8.74;43.44
33506;BME280;19843;51.040;13.782;2023-04-05T10:14:31;100962.38;;;8.94;42.92
33506;BME280;19843;51.040;13.782;2023-04-05T10:17:03;100959.31;;;9.02;42.77
33506;BME280;19843;51.040;13.782;2023-04-05T10:19:36;100956.66;;;9.35;42.17
33506;BME280;19843;51.040;13.782;2023-04-05T10:22:07;100960.09;;;8.87;40.99
33506;BME280;19843;51.040;13.782;2023-04-05T10:24:39;100957.19;;;8.91;41.55
33506;BME280;19843;51.040;13.782;2023-04-05T10:27:13;100954.03;;;9.51;40.97
33506;BME280;19843;51.040;13.782;2023-04-05T10:29:46;100952.03;;;10.04;41.28
33506;BME280;19843;51.040;13.782;2023-04-05T10:32:17;100950.03;;;10.08;41.14
33506;BME280;19843;51.040;13.782;2023-04-05T10:34:47;100933.81;;;9.95;38.33
33506;BME280;19843;51.040;13.782;2023-04-05T10:37:19;100935.53;;;9.96;38.90
33506;BME280;19843;51.040;13.782;2023-04-05T10:39:51;100933.16;;;9.74;38.69
33506;BME280;19843;51.040;13.782;2023-04-05T10:42:19;100930.31;;;9.61;39.55
33506;BME280;19843;51.040;13.782;2023-04-05T10:44:50;100931.72;;;9.84;37.87
33506;BME280;19843;51.040;13.782;2023-04-05T10:47:18;100926.91;;;9.41;39.24
33506;BME280;19843;51.040;13.782;2023-04-05T10:49:45;100934.63;;;9.30;39.57
33506;BME280;19843;51.040;13.782;2023-04-05T10:52:13;100933.47;;;9.18;41.25
33506;BME280;19843;51.040;13.782;2023-04-05T10:54:42;100934.94;;;8.91;41.05
33506;BME280;19843;51.040;13.782;2023-04-05T10:57:10;100935.84;;;9.25;41.49
33506;BME280;19843;51.040;13.782;2023-04-05T10:59:39;100934.44;;;9.00;38.88
33506;BME280;19843;51.040;13.782;2023-04-05T11:02:09;100939.88;;;8.81;40.69
33506;BME280;19843;51.040;13.782;2023-04-05T11:04:37;100933.56;;;8.65;40.69
33506;BME280;19843;51.040;13.782;2023-04-05T11:07:10;100937.47;;;8.21;40.97
33506;BME280;19843;51.040;13.782;2023-04-05T11:09:38;100932.31;;;8.54;40.68
33506;BME280;19843;51.040;13.782;2023-04-05T11:12:06;100932.19;;;8.39;42.01
33506;BME280;19843;51.040;13.782;2023-04-05T11:14:34;100930.44;;;8.56;41.77
33506;BME280;19843;51.040;13.782;2023-04-05T11:17:02;100931.22;;;8.76;40.96
33506;BME280;19843;51.040;13.782;2023-04-05T11:19:49;100935.69;;;8.41;41.19
33506;BME280;19843;51.040;13.782;2023-04-05T11:22:23;100935.44;;;8.45;42.85
33506;BME280;19843;51.040;13.782;2023-04-05T11:24:52;100929.88;;;8.31;42.35
33506;BME280;19843;51.040;13.782;2023-04-05T11:27:23;100928.09;;;8.68;41.97
33506;BME280;19843;51.040;13.782;2023-04-05T11:29:51;100926.03;;;8.73;42.13
33506;BME280;19843;51.040;13.782;2023-04-05T11:32:19;100918.94;;;8.89;41.74
33506;BME280;19843;51.040;13.782;2023-04-05T11:34:58;100917.28;;;9.37;40.86
33506;BME280;19843;51.040;13.782;2023-04-05T11:40:24;100910.13;;;9.05;40.49
33506;BME280;19843;51.040;13.782;2023-04-05T11:43:00;100915.16;;;9.11;39.12
33506;BME280;19843;51.040;13.782;2023-04-05T11:45:28;100917.06;;;9.09;40.27
33506;BME280;19843;51.040;13.782;2023-04-05T11:47:58;100914.69;;;9.20;41.02
33506;BME280;19843;51.040;13.782;2023-04-05T11:50:27;100903.44;;;9.62;40.69
33506;BME280;19843;51.040;13.782;2023-04-05T11:53:07;100913.97;;;9.50;41.32
33506;BME280;19843;51.040;13.782;2023-04-05T11:55:34;100915.41;;;9.39;42.10
33506;BME280;19843;51.040;13.782;2023-04-05T11:58:02;100911.34;;;9.32;41.32
33506;BME280;19843;51.040;13.782;2023-04-05T12:00:29;100919.22;;;9.51;42.44
33506;BME280;19843;51.040;13.782;2023-04-05T12:02:56;100910.06;;;9.39;41.29
33506;BME280;19843;51.040;13.782;2023-04-05T12:05:24;100905.72;;;9.70;42.36
33506;BME280;19843;51.040;13.782;2023-04-05T12:07:52;100907.94;;;10.10;40.28
33506;BME280;19843;51.040;13.782;2023-04-05T12:10:20;100905.97;;;10.13;40.76
33506;BME280;19843;51.040;13.782;2023-04-05T12:12:48;100902.94;;;10.03;39.88
33506;BME280;19843;51.040;13.782;2023-04-05T12:15:16;100902.31;;;10.46;39.10
33506;BME280;19843;51.040;13.782;2023-04-05T12:17:45;100894.97;;;10.50;39.57
33506;BME280;19843;51.040;13.782;2023-04-05T12:20:15;100892.88;;;10.55;39.26
33506;BME280;19843;51.040;13.782;2023-04-05T12:22:43;100890.66;;;10.15;39.73
33506;BME280;19843;51.040;13.782;2023-04-05T12:25:12;100903.09;;;10.16;41.87
33506;BME280;19843;51.040;13.782;2023-04-05T12:27:39;100886.94;;;10.18;40.47
33506;BME280;19843;51.040;13.782;2023-04-05T12:30:08;100893.09;;;9.72;40.09
33506;BME280;19843;51.040;13.782;2023-04-05T12:32:39;100890.44;;;9.72;40.40
33506;BME280;19843;51.040;13.782;2023-04-05T12:35:09;100877.81;;;9.90;40.45
33506;BME280;19843;51.040;13.782;2023-04-05T12:37:37;100875.97;;;10.22;40.77
33506;BME280;19843;51.040;13.782;2023-04-05T12:40:04;100879.31;;;10.26;40.64
33506;BME280;19843;51.040;13.782;2023-04-05T12:42:33;100882.94;;;10.25;40.51
33506;BME280;19843;51.040;13.782;2023-04-05T12:45:02;100878.28;;;10.13;39.69
33506;BME280;19843;51.040;13.782;2023-04-05T12:47:31;100873.69;;;10.15;40.50
33506;BME280;19843;51.040;13.782;2023-04-05T12:50:08;100870.44;;;9.94;40.46
33506;BME280;19843;51.040;13.782;2023-04-05T12:52:35;100883.16;;;9.74;41.18
33506;BME280;19843;51.040;13.782;2023-04-05T12:55:03;100864.28;;;10.23;40.27
33506;BME280;19843;51.040;13.782;2023-04-05T12:57:31;100878.31;;;9.81;40.22
33506;BME280;19843;51.040;13.782;2023-04-05T12:59:59;100879.25;;;9.96;39.47
33506;BME280;19843;51.040;13.782;2023-04-05T13:02:27;100873.88;;;10.12;40.19